Time;durP1;ratioP1;P1;durP2;ratioP2;P2;SDS_P1;SDS_P2;PMS_P1;PMS_P2;Temp;Humidity;BMP_temperature;BMP_pressure;BME280_temperature;BME280_humidity;BME280_pressure;Samples;Min_cycle;Max_cycle;Signal;HPM_P1;HPM_P2
2021/12/04 00:02:06;;;;;;;2.40;1.65;;;8.30;94.90;;;;;;5021168;28;20026;-49
2021/12/04 00:04:35;;;;;;;3.25;1.83;;;8.30;94.90;;;;;;5019608;28;20452;-50
2021/12/04 00:07:05;;;;;;;1.92;1.60;;;8.30;94.90;;;;;;5019604;28;20037;-49
2021/12/04 00:09:32;;;;;;;2.85;1.45;;;8.30;94.90;;;;;;5022134;28;20053;-49
2021/12/04 00:14:24;;;;;;;1.92;1.70;;;8.30;94.90;;;;;;5017148;28;20041;-49
2021/12/04 00:16:50;;;;;;;2.63;1.80;;;8.30;94.90;;;;;;5018160;28;20033;-49
2021/12/04 00:19:16;;;;;;;2.05;1.45;;;8.30;94.90;;;;;;5019431;28;20057;-49
2021/12/04 00:21:42;;;;;;;1.13;1.05;;;8.30;94.90;;;;;;5022454;28;20448;-49
2021/12/04 00:24:09;;;;;;;1.60;1.08;;;8.30;94.80;;;;;;5018601;28;20033;-49
2021/12/04 00:26:34;;;;;;;2.40;1.70;;;8.30;94.90;;;;;;5019887;28;20396;-49
2021/12/04 00:29:00;;;;;;;2.15;1.50;;;8.30;95.00;;;;;;5020850;28;20025;-49
2021/12/04 00:31:27;;;;;;;2.65;1.80;;;8.30;94.90;;;;;;5015332;28;20116;-49
2021/12/04 00:33:53;;;;;;;4.00;1.25;;;8.30;94.90;;;;;;5017067;28;20468;-49
2021/12/04 00:50:04;;;;;;;2.17;1.90;;;8.30;94.90;;;;;;5018711;28;20506;-49
2021/12/04 00:52:30;;;;;;;2.08;1.20;;;8.30;94.90;;;;;;5018050;28;20116;-49
2021/12/04 00:54:56;;;;;;;5.70;1.85;;;8.30;94.90;;;;;;5019058;28;20117;-50
2021/12/04 00:57:22;;;;;;;6.57;1.27;;;8.30;94.90;;;;;;5016742;28;20441;-49
2021/12/04 00:59:47;;;;;;;3.10;1.75;;;8.30;94.90;;;;;;5020175;28;20041;-49
2021/12/04 01:02:17;;;;;;;3.95;1.70;;;8.30;94.90;;;;;;5017312;28;20046;-49
2021/12/04 01:04:43;;;;;;;2.65;1.52;;;8.30;95.20;;;;;;5019523;28;20051;-49
2021/12/04 01:07:09;;;;;;;3.97;1.48;;;8.30;94.90;;;;;;5018142;28;20407;-49
2021/12/04 01:09:34;;;;;;;2.35;1.80;;;8.30;94.90;;;;;;5019221;28;20379;-49
2021/12/04 01:12:01;;;;;;;3.47;1.40;;;8.30;95.00;;;;;;5022000;28;20029;-49
2021/12/04 01:14:27;;;;;;;0.63;0.60;;;8.30;95.00;;;;;;5019700;28;20053;-49
2021/12/04 01:16:53;;;;;;;3.75;1.85;;;8.30;94.90;;;;;;5013215;28;20029;-49
2021/12/04 01:19:19;;;;;;;1.77;1.35;;;8.30;95.00;;;;;;5018629;28;20075;-49
2021/12/04 01:21:47;;;;;;;1.40;1.13;;;8.30;94.90;;;;;;5020919;28;20423;-49
2021/12/04 01:24:12;;;;;;;2.10;1.30;;;8.30;94.90;;;;;;5019391;28;20030;-49
2021/12/04 01:26:39;;;;;;;1.83;1.00;;;8.30;95.00;;;;;;5021328;28;20348;-49
2021/12/04 01:29:05;;;;;;;3.10;1.40;;;8.30;95.00;;;;;;5015814;28;20526;-49
2021/12/04 01:31:31;;;;;;;1.88;1.38;;;8.30;95.00;;;;;;5017726;28;20026;-49
2021/12/04 01:33:56;;;;;;;2.58;1.52;;;8.30;95.00;;;;;;5019728;28;20049;-49
2021/12/04 01:36:22;;;;;;;2.53;1.30;;;8.30;94.90;;;;;;5019195;28;20018;-49
2021/12/04 01:38:48;;;;;;;2.50;1.33;;;8.30;95.00;;;;;;5022489;28;20471;-49
2021/12/04 01:41:13;;;;;;;3.35;1.60;;;8.30;95.00;;;;;;5024852;28;20030;-49
2021/12/04 01:43:39;;;;;;;1.40;1.10;;;8.30;95.00;;;;;;5022686;28;20029;-49
2021/12/04 01:46:05;;;;;;;2.10;1.13;;;8.30;95.00;;;;;;5018978;28;20113;-49
2021/12/04 01:48:31;;;;;;;1.42;1.33;;;8.30;95.00;;;;;;5022935;28;20417;-49
2021/12/04 01:50:56;;;;;;;3.53;1.05;;;8.40;95.00;;;;;;5018474;28;20022;-49
2021/12/04 01:53:24;;;;;;;3.42;1.05;;;8.30;95.00;;;;;;5024800;28;20033;-49
2021/12/04 01:55:55;;;;;;;1.33;0.90;;;8.30;95.00;;;;;;5021420;28;20049;-49
2021/12/04 01:58:20;;;;;;;1.70;1.20;;;8.30;94.90;;;;;;5021577;28;20049;-49
2021/12/04 02:00:46;;;;;;;1.58;1.27;;;8.30;94.90;;;;;;5021626;28;20025;-49
2021/12/04 02:03:14;;;;;;;2.78;1.55;;;8.30;94.90;;;;;;5021981;28;20022;-49
2021/12/04 02:05:41;;;;;;;2.15;1.25;;;8.30;95.00;;;;;;5024504;28;20017;-49
2021/12/04 02:08:10;;;;;;;1.30;1.20;;;8.40;95.00;;;;;;5020115;28;20033;-49
2021/12/04 02:10:36;;;;;;;1.55;1.05;;;8.30;94.90;;;;;;5022862;28;20041;-49
2021/12/04 02:13:02;;;;;;;0.95;0.95;;;8.30;94.90;;;;;;5022401;28;20153;-49
2021/12/04 02:15:28;;;;;;;1.67;1.38;;;8.30;94.90;;;;;;5021282;28;20025;-49
2021/12/04 02:17:54;;;;;;;2.80;0.88;;;8.30;95.00;;;;;;5016092;28;20045;-49
2021/12/04 02:20:23;;;;;;;0.40;0.40;;;8.30;94.90;;;;;;5023527;28;20339;-49
2021/12/04 02:22:49;;;;;;;1.23;0.90;;;8.30;94.90;;;;;;5022860;28;20037;-49
2021/12/04 02:25:16;;;;;;;1.02;0.98;;;8.30;95.00;;;;;;5022305;28;20368;-49
2021/12/04 02:27:42;;;;;;;1.75;1.45;;;8.30;95.00;;;;;;5022146;28;20030;-49
2021/12/04 02:30:11;;;;;;;0.60;0.60;;;8.30;95.00;;;;;;5020950;28;20262;-49
2021/12/04 02:32:38;;;;;;;0.60;0.60;;;8.30;95.00;;;;;;5018039;28;20037;-49
2021/12/04 02:35:06;;;;;;;2.65;1.23;;;8.30;95.00;;;;;;5023880;28;20053;-50
2021/12/04 02:37:33;;;;;;;1.98;0.93;;;8.30;95.00;;;;;;5021811;28;20034;-49
2021/12/04 02:40:00;;;;;;;1.88;1.27;;;8.30;95.10;;;;;;5025299;28;20033;-49
2021/12/04 02:42:30;;;;;;;1.02;1.02;;;8.30;95.00;;;;;;5020882;28;20397;-49
2021/12/04 02:45:01;;;;;;;1.13;1.02;;;8.30;95.10;;;;;;5024668;28;20127;-49
2021/12/04 02:47:28;;;;;;;1.10;1.00;;;8.30;95.10;;;;;;5019605;28;20109;-49
2021/12/04 02:49:55;;;;;;;2.17;1.17;;;8.30;95.10;;;;;;5017712;28;20487;-49
2021/12/04 02:52:22;;;;;;;6.53;1.00;;;8.30;95.20;;;;;;5022842;28;20372;-49
2021/12/04 02:54:49;;;;;;;0.93;0.90;;;8.30;95.10;;;;;;5017608;28;20376;-49
2021/12/04 02:57:17;;;;;;;1.65;0.90;;;8.30;95.10;;;;;;5019913;28;20758;-49
2021/12/04 02:59:43;;;;;;;1.63;1.02;;;8.30;95.20;;;;;;5017584;28;20038;-49
2021/12/04 03:02:20;;;;;;;1.40;0.85;;;8.30;95.20;;;;;;5019006;28;20416;-49
2021/12/04 03:04:57;;;;;;;1.88;1.50;;;8.30;95.20;;;;;;5021291;28;20062;-49
2021/12/04 03:07:24;;;;;;;1.05;0.93;;;8.30;95.20;;;;;;5021136;28;20034;-49
2021/12/04 03:09:50;;;;;;;5.03;1.02;;;8.30;95.30;;;;;;5022859;28;20060;-49
2021/12/04 03:12:23;;;;;;;0.80;0.80;;;8.30;95.30;;;;;;5023431;28;20354;-48
2021/12/04 03:14:49;;;;;;;1.23;1.05;;;8.30;95.20;;;;;;5021202;28;20108;-49
2021/12/04 03:17:19;;;;;;;2.20;1.00;;;8.30;95.30;;;;;;5017948;28;20555;-49
2021/12/04 03:19:45;;;;;;;;;;;8.30;95.30;;;;;;5022430;28;20467;-49
2021/12/04 03:22:11;;;;;;;2.05;1.33;;;8.30;95.30;;;;;;5022416;28;19905;-49
2021/12/04 03:24:40;;;;;;;1.27;1.05;;;8.30;95.30;;;;;;5022483;28;20029;-49
2021/12/04 03:27:06;;;;;;;1.58;1.00;;;8.30;95.40;;;;;;5017852;28;20013;-49
2021/12/04 03:29:38;;;;;;;1.27;1.02;;;8.30;95.30;;;;;;5019878;28;20118;-49
2021/12/04 03:40:11;;;;;;;4.43;0.90;;;8.30;95.40;;;;;;5023099;28;20514;-49
2021/12/04 03:42:39;;;;;;;1.05;1.05;;;8.30;95.40;;;;;;5022957;28;20021;-49
2021/12/04 03:45:08;;;;;;;1.80;1.33;;;8.30;95.40;;;;;;5021690;28;20038;-49
2021/12/04 03:47:38;;;;;;;1.88;1.10;;;8.30;95.50;;;;;;5015103;28;20033;-49
2021/12/04 03:50:04;;;;;;;0.63;0.63;;;8.30;95.50;;;;;;5020358;28;20415;-49
2021/12/04 03:52:29;;;;;;;2.92;1.35;;;8.30;95.50;;;;;;5020894;28;20056;-49
2021/12/04 03:54:55;;;;;;;1.45;1.00;;;8.30;95.50;;;;;;5020095;28;20368;-50
2021/12/04 03:57:20;;;;;;;0.20;0.20;;;8.30;95.50;;;;;;5020399;28;20034;-49
2021/12/04 03:59:47;;;;;;;1.25;0.80;;;8.30;95.50;;;;;;5022067;28;20077;-49
2021/12/04 04:02:15;;;;;;;1.65;0.98;;;8.30;95.50;;;;;;5015266;28;20030;-49
2021/12/04 04:04:41;;;;;;;0.50;0.50;;;8.30;95.50;;;;;;5016948;28;20227;-49
2021/12/04 04:07:07;;;;;;;0.73;0.52;;;8.30;95.60;;;;;;5019042;28;20073;-49
2021/12/04 04:09:33;;;;;;;2.42;1.23;;;8.30;95.50;;;;;;5020598;28;20042;-49
2021/12/04 04:11:59;;;;;;;0.60;0.57;;;8.30;95.60;;;;;;5020346;28;20056;-49
2021/12/04 04:14:25;;;;;;;1.77;1.10;;;8.30;95.60;;;;;;5019170;28;20033;-49
2021/12/04 04:16:53;;;;;;;0.60;0.60;;;8.30;95.60;;;;;;5017779;28;20038;-49
2021/12/04 04:19:19;;;;;;;0.43;0.43;;;8.30;95.60;;;;;;5019099;28;20075;-49
2021/12/04 04:21:45;;;;;;;1.42;0.82;;;8.30;95.60;;;;;;5019739;28;20030;-49
2021/12/04 04:24:13;;;;;;;0.85;0.85;;;8.30;95.60;;;;;;5004259;28;20022;-49
2021/12/04 04:26:41;;;;;;;0.55;0.50;;;8.30;95.60;;;;;;5020965;28;20026;-49
2021/12/04 04:29:07;;;;;;;0.32;0.32;;;8.30;95.60;;;;;;5020935;28;20030;-50
2021/12/04 04:31:34;;;;;;;0.95;0.80;;;8.30;95.60;;;;;;5020565;28;20026;-49
2021/12/04 04:34:03;;;;;;;0.60;0.55;;;8.30;95.60;;;;;;5015154;28;20047;-49
2021/12/04 04:39:53;;;;;;;0.35;0.35;;;8.30;95.70;;;;;;5022519;28;20077;-49
2021/12/04 05:12:01;;;;;;;0.50;0.50;;;8.30;95.80;;;;;;5017032;28;20033;-49
2021/12/04 05:14:26;;;;;;;0.50;0.50;;;8.30;95.90;;;;;;5020929;28;20084;-49
2021/12/04 05:16:59;;;;;;;0.60;0.50;;;8.30;95.90;;;;;;5025253;28;20030;-49
2021/12/04 05:19:38;;;;;;;0.40;0.40;;;8.30;95.90;;;;;;5019714;28;20029;-49
2021/12/04 05:22:05;;;;;;;0.60;0.60;;;8.30;95.90;;;;;;5023220;28;20104;-49
2021/12/04 05:24:31;;;;;;;0.52;0.52;;;8.30;95.90;;;;;;5021184;28;20038;-50
2021/12/04 05:26:57;;;;;;;0.50;0.50;;;8.30;95.90;;;;;;5023370;28;20025;-49
2021/12/04 05:29:23;;;;;;;0.75;0.60;;;8.30;95.90;;;;;;5024432;28;20080;-49
2021/12/04 05:31:49;;;;;;;0.80;0.80;;;8.30;95.90;;;;;;5021364;28;20034;-49
2021/12/04 05:34:15;;;;;;;0.70;0.70;;;8.30;96.00;;;;;;5019115;28;20372;-49
2021/12/04 05:36:40;;;;;;;1.10;0.70;;;8.30;96.00;;;;;;5021049;28;20032;-49
2021/12/04 05:39:06;;;;;;;0.38;0.38;;;8.30;96.00;;;;;;5024944;28;20137;-49
2021/12/04 05:41:33;;;;;;;0.40;0.40;;;8.30;95.90;;;;;;5020987;28;20384;-50
2021/12/04 05:44:04;;;;;;;0.63;0.63;;;8.30;95.90;;;;;;5023397;28;20408;-49
2021/12/04 05:46:35;;;;;;;0.45;0.45;;;8.30;96.00;;;;;;5018838;28;20310;-49
2021/12/04 05:49:06;;;;;;;0.30;0.30;;;8.30;96.30;;;;;;5021334;28;20033;-49
2021/12/04 05:56:45;;;;;;;0.70;0.70;;;8.30;96.00;;;;;;5023081;28;20033;-49
2021/12/04 05:59:11;;;;;;;0.88;0.40;;;8.30;96.10;;;;;;5022751;28;20045;-49
2021/12/04 06:01:36;;;;;;;0.40;0.40;;;8.30;96.00;;;;;;5022879;28;20148;-49
2021/12/04 06:04:02;;;;;;;0.50;0.50;;;8.30;96.00;;;;;;5024158;28;20395;-49
2021/12/04 06:06:28;;;;;;;0.47;0.43;;;8.30;96.00;;;;;;5021030;28;20026;-49
2021/12/04 06:08:54;;;;;;;0.77;0.63;;;8.30;96.10;;;;;;5018502;28;20132;-49
2021/12/04 06:11:20;;;;;;;0.35;0.35;;;8.30;96.10;;;;;;5021037;28;20034;-49
2021/12/04 06:13:46;;;;;;;0.40;0.40;;;8.30;96.10;;;;;;5007179;28;20036;-49
2021/12/04 06:16:13;;;;;;;0.30;0.30;;;8.30;96.10;;;;;;5021744;28;20353;-49
2021/12/04 06:18:39;;;;;;;0.40;0.40;;;8.30;96.10;;;;;;5021295;28;20057;-49
2021/12/04 06:23:48;;;;;;;0.32;0.32;;;8.30;96.10;;;;;;5022587;28;20045;-49
2021/12/04 06:26:14;;;;;;;0.50;0.50;;;8.30;96.10;;;;;;5024304;28;20344;-49
2021/12/04 06:28:40;;;;;;;0.35;0.35;;;8.30;96.20;;;;;;5020761;28;20352;-49
2021/12/04 06:31:08;;;;;;;0.47;0.47;;;8.30;96.10;;;;;;5023318;28;20263;-49
2021/12/04 06:33:34;;;;;;;0.40;0.40;;;8.30;96.10;;;;;;5017192;28;20156;-49
2021/12/04 06:36:00;;;;;;;0.43;0.43;;;8.30;96.20;;;;;;5020340;28;20479;-50
2021/12/04 06:38:26;;;;;;;0.32;0.32;;;8.30;96.30;;;;;;5024225;28;20038;-49
2021/12/04 06:40:52;;;;;;;0.35;0.35;;;8.30;96.30;;;;;;5021684;28;20030;-49
2021/12/04 06:43:19;;;;;;;0.73;0.38;;;8.30;96.30;;;;;;5023129;28;20029;-49
2021/12/04 06:45:49;;;;;;;0.47;0.47;;;8.30;96.30;;;;;;5019359;28;20064;-49
2021/12/04 06:48:19;;;;;;;0.28;0.28;;;8.30;96.20;;;;;;5021640;28;20446;-49
2021/12/04 06:50:51;;;;;;;0.28;0.28;;;8.30;96.30;;;;;;5024438;28;20108;-49
2021/12/04 06:55:46;;;;;;;0.35;0.35;;;8.30;96.30;;;;;;5021623;28;20413;-49
2021/12/04 06:58:12;;;;;;;1.30;0.90;;;8.30;96.30;;;;;;5021559;28;20350;-50
2021/12/04 07:00:38;;;;;;;0.32;0.32;;;8.30;96.30;;;;;;5021750;28;20524;-49
2021/12/04 07:03:04;;;;;;;0.82;0.70;;;8.30;96.30;;;;;;5022253;28;20433;-49
2021/12/04 07:05:29;;;;;;;0.40;0.40;;;8.30;96.30;;;;;;5012274;28;20026;-49
2021/12/04 07:07:56;;;;;;;0.35;0.35;;;8.30;96.40;;;;;;5021578;28;20068;-49
2021/12/04 07:10:22;;;;;;;0.70;0.70;;;8.30;96.30;;;;;;5016776;28;20524;-49
2021/12/04 07:12:48;;;;;;;0.52;0.52;;;8.30;96.40;;;;;;5017787;28;20109;-49
2021/12/04 07:15:13;;;;;;;0.52;0.52;;;8.30;96.40;;;;;;5017425;28;20893;-49
2021/12/04 07:17:39;;;;;;;1.02;0.60;;;8.30;96.40;;;;;;5022149;28;20120;-49
2021/12/04 07:20:07;;;;;;;0.25;0.25;;;8.40;96.40;;;;;;5016661;28;20029;-49
2021/12/04 07:22:33;;;;;;;0.52;0.52;;;8.30;96.40;;;;;;5020030;28;20030;-49
2021/12/04 07:24:59;;;;;;;0.40;0.40;;;8.30;96.50;;;;;;5022820;28;20068;-49
2021/12/04 07:27:25;;;;;;;0.70;0.70;;;8.40;96.50;;;;;;5020413;28;20026;-49
2021/12/04 07:29:51;;;;;;;0.90;0.73;;;8.40;96.50;;;;;;5021734;28;20489;-49
2021/12/04 07:32:16;;;;;;;2.95;0.80;;;8.40;96.60;;;;;;5020088;28;20021;-49
2021/12/04 07:34:42;;;;;;;0.60;0.60;;;8.40;96.60;;;;;;5017305;28;20455;-49
2021/12/04 07:37:07;;;;;;;0.60;0.50;;;8.40;96.60;;;;;;5018551;28;20494;-49
2021/12/04 07:39:33;;;;;;;0.40;0.40;;;8.30;96.60;;;;;;5014783;28;20460;-49
2021/12/04 07:41:59;;;;;;;3.03;0.77;;;8.30;96.60;;;;;;5012317;28;20029;-50
2021/12/04 07:44:24;;;;;;;0.30;0.30;;;8.40;96.70;;;;;;5018079;28;20030;-49
2021/12/04 07:46:50;;;;;;;0.20;0.20;;;8.40;96.60;;;;;;5019502;28;20022;-50
2021/12/04 07:49:16;;;;;;;0.90;0.82;;;8.40;96.60;;;;;;5019639;28;20025;-49
2021/12/04 07:51:43;;;;;;;1.20;0.63;;;8.40;96.60;;;;;;5021114;28;20026;-49
2021/12/04 07:54:09;;;;;;;0.30;0.30;;;8.40;96.60;;;;;;5017294;28;20088;-49
2021/12/04 07:56:35;;;;;;;0.35;0.35;;;8.40;96.70;;;;;;5020722;28;20421;-49
2021/12/04 07:59:01;;;;;;;0.43;0.43;;;8.40;96.70;;;;;;5023135;28;20518;-49
2021/12/04 08:01:27;;;;;;;0.80;0.60;;;8.40;96.70;;;;;;5022151;28;20029;-49
2021/12/04 08:03:53;;;;;;;0.40;0.40;;;8.40;96.70;;;;;;5021920;28;20112;-49
2021/12/04 08:06:19;;;;;;;0.63;0.63;;;8.40;96.80;;;;;;5014537;28;20038;-49
2021/12/04 08:08:44;;;;;;;14.32;0.82;;;8.40;96.80;;;;;;5016368;28;20085;-49
2021/12/04 08:11:10;;;;;;;0.50;0.50;;;8.40;96.80;;;;;;5013760;28;20457;-49
2021/12/04 08:13:36;;;;;;;0.88;0.57;;;8.40;96.80;;;;;;5017590;28;20037;-49
2021/12/04 08:16:01;;;;;;;0.75;0.60;;;8.40;96.90;;;;;;5021457;28;20025;-49
2021/12/04 08:18:28;;;;;;;0.88;0.60;;;8.40;96.90;;;;;;5022440;28;20049;-49
2021/12/04 08:20:53;;;;;;;0.40;0.40;;;8.40;96.90;;;;;;5011741;28;20150;-49
2021/12/04 08:23:19;;;;;;;0.45;0.45;;;8.40;96.90;;;;;;5021181;28;20489;-49
2021/12/04 08:25:47;;;;;;;0.60;0.45;;;8.40;96.90;;;;;;5020796;28;20092;-49
2021/12/04 08:28:13;;;;;;;0.55;0.55;;;8.40;96.90;;;;;;5020250;28;20084;-49
2021/12/04 08:30:40;;;;;;;0.75;0.60;;;8.40;96.90;;;;;;5024816;28;20022;-49
2021/12/04 08:33:08;;;;;;;0.20;0.20;;;8.40;96.90;;;;;;5022272;28;20036;-49
2021/12/04 08:35:39;;;;;;;0.98;0.50;;;8.40;97.00;;;;;;5013807;28;20091;-49
2021/12/04 08:38:05;;;;;;;;;;;8.40;96.90;;;;;;5015943;28;20239;-49
2021/12/04 08:40:31;;;;;;;0.45;0.45;;;8.40;96.90;;;;;;5015903;28;19909;-49
2021/12/04 08:42:57;;;;;;;2.45;1.00;;;8.40;97.00;;;;;;5019619;28;20033;-49
2021/12/04 08:45:23;;;;;;;0.80;0.60;;;8.50;97.10;;;;;;5021959;28;20095;-49
2021/12/04 08:47:49;;;;;;;3.03;2.03;;;8.50;97.10;;;;;;5014003;28;20037;-49
2021/12/04 08:50:19;;;;;;;0.60;0.60;;;8.40;97.00;;;;;;5015521;28;20038;-49
2021/12/04 08:52:45;;;;;;;1.45;0.90;;;8.40;97.00;;;;;;5018863;28;20029;-49
2021/12/04 08:55:15;;;;;;;0.75;0.70;;;8.40;97.20;;;;;;5016838;28;20021;-50
2021/12/04 08:57:41;;;;;;;0.57;0.50;;;8.40;97.10;;;;;;5021048;28;20080;-49
2021/12/04 09:00:15;;;;;;;1.85;0.70;;;8.50;97.30;;;;;;5017519;28;20042;-49
2021/12/04 09:02:42;;;;;;;0.63;0.57;;;8.40;97.10;;;;;;5017994;28;20448;-49
2021/12/04 09:05:10;;;;;;;1.25;0.63;;;8.50;97.10;;;;;;5013511;28;20088;-50
2021/12/04 09:07:36;;;;;;;0.73;0.60;;;8.40;97.10;;;;;;5019788;28;20085;-49
2021/12/04 09:10:02;;;;;;;0.45;0.45;;;8.50;97.10;;;;;;5018772;28;20029;-49
2021/12/04 09:12:29;;;;;;;0.98;0.70;;;8.50;97.10;;;;;;5017298;28;20452;-49
2021/12/04 09:14:56;;;;;;;0.80;0.80;;;8.50;97.30;;;;;;5012545;28;20080;-49
2021/12/04 09:17:22;;;;;;;0.60;0.60;;;8.50;97.30;;;;;;5017742;28;20033;-49
2021/12/04 09:19:49;;;;;;;0.70;0.70;;;8.50;97.40;;;;;;5010496;28;20489;-49
2021/12/04 09:22:25;;;;;;;0.20;0.20;;;8.50;97.40;;;;;;5016052;28;20104;-49
2021/12/04 09:24:56;;;;;;;1.50;0.90;;;8.50;97.30;;;;;;5016488;28;20437;-49
2021/12/04 10:35:05;;;;;;;1.13;0.65;;;8.70;97.80;;;;;;5018462;28;20037;-49
2021/12/04 10:37:32;;;;;;;0.60;0.60;;;8.70;97.90;;;;;;5017830;28;20431;-49
2021/12/04 10:40:04;;;;;;;0.68;0.68;;;8.70;97.80;;;;;;5018152;28;20033;-49
2021/12/04 10:42:46;;;;;;;0.50;0.50;;;8.70;97.90;;;;;;5020778;28;20057;-49
2021/12/04 10:45:12;;;;;;;0.63;0.60;;;8.70;97.90;;;;;;5019213;28;20025;-49
2021/12/04 10:47:53;;;;;;;0.40;0.40;;;8.70;97.90;;;;;;5018068;28;20365;-49
2021/12/04 10:50:29;;;;;;;0.63;0.63;;;8.70;98.00;;;;;;5017944;28;20033;-49
2021/12/04 10:53:01;;;;;;;0.30;0.30;;;8.70;98.00;;;;;;5021203;28;20025;-49
2021/12/04 11:04:06;;;;;;;0.55;0.55;;;8.70;98.20;;;;;;5020345;28;20103;-48
2021/12/04 11:26:36;;;;;;;0.60;0.55;;;8.80;98.60;;;;;;5020923;28;20021;-49
2021/12/04 11:42:52;;;;;;;0.40;0.40;;;8.90;98.90;;;;;;5021617;28;20083;-49
2021/12/04 11:45:30;;;;;;;1.08;0.50;;;8.90;98.80;;;;;;5024788;28;20144;-49
2021/12/04 11:48:01;;;;;;;0.63;0.63;;;8.90;98.90;;;;;;5021346;28;20107;-49
2021/12/04 11:50:37;;;;;;;0.75;0.60;;;8.90;99.10;;;;;;5030290;28;20032;-49
2021/12/04 11:53:06;;;;;;;0.55;0.55;;;8.90;98.90;;;;;;5027429;28;20033;-48
2021/12/04 11:55:39;;;;;;;0.50;0.40;;;8.90;98.90;;;;;;5021959;28;20033;-49
2021/12/04 11:58:31;;;;;;;0.30;0.30;;;8.90;98.90;;;;;;5023846;28;20123;-49
2021/12/04 12:01:04;;;;;;;0.77;0.70;;;8.90;99.10;;;;;;5024002;28;20434;-48
2021/12/04 12:03:36;;;;;;;0.80;0.50;;;9.00;99.00;;;;;;5021150;28;20030;-48
2021/12/04 12:06:09;;;;;;;1.50;0.70;;;9.00;99.10;;;;;;5016525;28;20523;-49
2021/12/04 12:08:42;;;;;;;0.40;0.40;;;9.00;99.40;;;;;;5019304;28;20030;-49
2021/12/04 12:11:28;;;;;;;0.43;0.35;;;9.00;99.00;;;;;;5018318;28;20029;-48
2021/12/04 12:14:05;;;;;;;0.50;0.50;;;9.00;99.10;;;;;;5021627;28;20041;-49
2021/12/04 12:16:38;;;;;;;0.30;0.30;;;8.90;99.30;;;;;;5018906;28;20021;-49
2021/12/04 12:19:13;;;;;;;1.30;0.60;;;9.00;99.20;;;;;;5020732;28;20476;-49
2021/12/04 12:21:42;;;;;;;0.52;0.50;;;9.00;99.30;;;;;;5013477;28;20345;-49
2021/12/04 12:36:25;;;;;;;0.30;0.30;;;9.10;99.20;;;;;;5021030;28;20036;-49
2021/12/04 12:38:40;;;;;;;0.50;0.50;;;9.00;99.20;;;;;;5005539;28;20049;-49
2021/12/04 12:41:11;;;;;;;0.47;0.45;;;9.00;99.20;;;;;;5015853;28;20080;-48
2021/12/04 12:44:00;;;;;;;0.50;0.50;;;9.10;99.20;;;;;;5014327;28;20052;-49
2021/12/04 12:46:53;;;;;;;0.40;0.40;;;9.10;99.30;;;;;;5020611;28;20026;-49
2021/12/04 12:49:30;;;;;;;0.60;0.60;;;9.10;99.30;;;;;;5017545;28;20034;-48
2021/12/04 12:52:01;;;;;;;0.40;0.40;;;9.10;99.30;;;;;;5016444;28;20457;-49
2021/12/04 12:54:53;;;;;;;0.55;0.55;;;9.10;99.50;;;;;;5019719;28;20061;-48
2021/12/04 12:57:34;;;;;;;0.40;0.40;;;9.10;99.40;;;;;;5021984;28;20033;-49
2021/12/04 13:14:12;;;;;;;0.47;0.47;;;9.10;99.40;;;;;;5021977;28;20076;-49
2021/12/04 13:16:41;;;;;;;0.80;0.57;;;9.20;99.60;;;;;;5021488;28;20017;-49
2021/12/04 13:19:12;;;;;;;1.55;0.52;;;9.10;99.50;;;;;;5020799;28;20040;-48
2021/12/04 13:21:40;;;;;;;0.35;0.35;;;9.10;99.50;;;;;;5014757;28;20029;-49
2021/12/04 13:24:10;;;;;;;0.95;0.73;;;9.10;99.40;;;;;;5021341;28;20030;-48
2021/12/04 13:26:38;;;;;;;0.77;0.77;;;9.20;99.50;;;;;;5021093;28;20475;-49
2021/12/04 13:29:07;;;;;;;0.40;0.40;;;9.10;99.40;;;;;;5021649;28;20272;-49
2021/12/04 13:31:37;;;;;;;0.38;0.38;;;9.10;99.50;;;;;;5021155;28;20025;-48
2021/12/04 13:34:07;;;;;;;0.30;0.30;;;9.20;99.40;;;;;;5018541;28;20381;-49
2021/12/04 13:36:33;;;;;;;2.13;1.65;;;9.20;99.50;;;;;;5022501;28;20084;-49
2021/12/04 13:39:10;;;;;;;0.20;0.20;;;9.20;99.60;;;;;;5024505;28;20041;-49
2021/12/04 13:41:38;;;;;;;0.30;0.30;;;9.20;99.50;;;;;;5022627;28;20030;-49
2021/12/04 13:44:06;;;;;;;0.43;0.43;;;9.20;99.30;;;;;;5022202;28;20029;-48
2021/12/04 13:46:49;;;;;;;0.20;0.20;;;9.20;99.50;;;;;;5022164;28;20087;-49
2021/12/04 13:49:21;;;;;;;0.40;0.40;;;9.20;99.50;;;;;;5018244;28;20026;-49
2021/12/04 13:51:55;;;;;;;0.80;0.57;;;9.20;99.40;;;;;;5019140;28;20117;-49
2021/12/04 13:54:22;;;;;;;0.20;0.20;;;9.20;99.50;;;;;;5019200;28;20042;-48
2021/12/04 13:56:48;;;;;;;0.43;0.40;;;9.20;99.50;;;;;;5018358;28;20095;-49
2021/12/04 13:59:14;;;;;;;0.30;0.30;;;9.20;99.60;;;;;;5020800;28;20297;-48
2021/12/04 14:01:42;;;;;;;0.45;0.45;;;9.20;99.50;;;;;;5019737;28;20554;-49
2021/12/04 14:04:16;;;;;;;0.30;0.30;;;9.20;99.70;;;;;;5022406;28;20065;-49
2021/12/04 14:06:50;;;;;;;0.30;0.30;;;9.20;99.40;;;;;;5017544;28;20161;-48
2021/12/04 14:09:17;;;;;;;0.45;0.40;;;9.20;99.50;;;;;;5018600;28;20025;-48
2021/12/04 14:11:43;;;;;;;0.60;0.60;;;9.20;99.50;;;;;;5018560;28;20072;-48
2021/12/04 14:14:26;;;;;;;0.40;0.40;;;9.20;99.50;;;;;;5023846;28;20061;-48
2021/12/04 14:16:53;;;;;;;0.73;0.73;;;9.20;99.60;;;;;;5021519;28;20054;-49
2021/12/04 14:19:29;;;;;;;1.00;0.60;;;9.20;99.70;;;;;;5018908;28;20095;-49
2021/12/04 14:21:59;;;;;;;0.30;0.30;;;9.20;99.50;;;;;;5017312;28;20025;-49
2021/12/04 14:24:30;;;;;;;0.90;0.60;;;9.20;99.50;;;;;;5017421;28;20026;-48
2021/12/04 14:26:57;;;;;;;0.45;0.40;;;9.20;99.50;;;;;;5020330;28;20474;-49
2021/12/04 14:29:25;;;;;;;1.27;0.50;;;9.20;99.60;;;;;;5021852;28;20022;-48
2021/12/04 14:31:53;;;;;;;0.40;0.40;;;9.20;99.70;;;;;;5022473;28;20022;-49
2021/12/04 14:34:23;;;;;;;0.40;0.40;;;9.20;99.50;;;;;;5017871;28;20374;-48
2021/12/04 14:36:59;;;;;;;0.38;0.38;;;9.20;99.50;;;;;;5020955;28;20468;-49
2021/12/04 14:39:25;;;;;;;0.55;0.50;;;9.20;99.50;;;;;;5026544;28;20084;-50
2021/12/04 14:41:51;;;;;;;0.28;0.28;;;9.20;99.30;;;;;;5021761;28;20056;-50
2021/12/04 14:44:17;;;;;;;0.40;0.40;;;9.20;99.20;;;;;;5016561;28;20061;-50
2021/12/04 14:46:43;;;;;;;0.30;0.30;;;9.20;99.30;;;;;;5023310;28;20025;-50
2021/12/04 14:49:10;;;;;;;0.30;0.30;;;9.20;99.20;;;;;;5018463;28;20450;-50
2021/12/04 14:51:36;;;;;;;0.35;0.35;;;9.20;99.20;;;;;;5017424;28;20033;-49
2021/12/04 14:54:02;;;;;;;0.38;0.38;;;9.10;99.20;;;;;;5017624;28;20040;-48
2021/12/04 14:56:30;;;;;;;0.55;0.50;;;9.10;99.20;;;;;;5022664;28;20021;-49
2021/12/04 14:58:56;;;;;;;0.30;0.30;;;9.10;99.50;;;;;;5018760;28;20121;-49
2021/12/04 15:01:27;;;;;;;0.75;0.60;;;9.20;99.40;;;;;;5020325;28;20122;-48
2021/12/04 15:03:58;;;;;;;0.40;0.40;;;9.10;99.30;;;;;;5019178;28;20397;-49
2021/12/04 15:06:25;;;;;;;0.30;0.30;;;9.20;99.40;;;;;;5016385;28;20117;-49
2021/12/04 15:09:07;;;;;;;0.30;0.30;;;9.10;99.30;;;;;;5017984;28;20030;-49
2021/12/04 15:11:34;;;;;;;2.92;0.75;;;9.10;99.60;;;;;;5019829;28;20479;-49
2021/12/04 15:14:11;;;;;;;0.50;0.50;;;9.10;99.50;;;;;;5019746;28;20122;-49
2021/12/04 15:19:21;;;;;;;0.60;0.60;;;9.10;99.50;;;;;;5017802;28;20469;-49
2021/12/04 15:21:57;;;;;;;0.60;0.60;;;9.10;99.70;;;;;;5018740;28;20026;-49
2021/12/04 15:24:33;;;;;;;0.40;0.40;;;9.10;99.60;;;;;;5016545;28;20032;-49
2021/12/04 15:27:04;;;;;;;0.30;0.30;;;9.10;99.50;;;;;;5014846;28;20460;-48
2021/12/04 15:29:32;;;;;;;1.00;0.40;;;9.10;99.60;;;;;;5018871;28;20046;-49
2021/12/04 15:32:00;;;;;;;3.50;0.52;;;9.10;99.90;;;;;;5021831;28;20464;-49
2021/12/04 15:34:31;;;;;;;0.38;0.38;;;9.10;99.60;;;;;;5018683;28;20030;-49
2021/12/04 15:37:01;;;;;;;0.50;0.50;;;9.10;99.50;;;;;;5013320;28;20092;-49
2021/12/04 15:39:31;;;;;;;0.60;0.60;;;9.10;99.50;;;;;;5019996;28;20053;-49
2021/12/04 15:42:29;;;;;;;0.55;0.55;;;9.10;99.50;;;;;;5018286;28;20396;-49
2021/12/04 15:45:31;;;;;;;0.30;0.30;;;9.10;99.60;;;;;;5021546;28;20384;-49
2021/12/04 15:53:57;;;;;;;5.88;1.23;;;9.10;99.70;;;;;;4994920;28;20045;-49
2021/12/04 15:56:37;;;;;;;1.30;0.90;;;9.10;99.50;;;;;;5020150;28;20049;-49
2021/12/04 15:59:06;;;;;;;2.25;0.98;;;9.10;99.60;;;;;;5021163;28;20044;-49
2021/12/04 16:01:32;;;;;;;0.57;0.57;;;9.10;99.60;;;;;;5016310;28;20040;-49
2021/12/04 16:03:59;;;;;;;0.57;0.57;;;9.10;99.60;;;;;;5023001;28;20104;-49
2021/12/04 16:06:36;;;;;;;0.30;0.30;;;9.10;99.60;;;;;;5015932;28;20400;-48
2021/12/04 16:09:02;;;;;;;1.98;0.50;;;9.10;99.60;;;;;;5015567;28;20436;-49
2021/12/04 16:11:38;;;;;;;0.40;0.40;;;9.10;99.60;;;;;;5021157;28;20136;-49
2021/12/04 16:14:05;;;;;;;1.95;0.90;;;9.20;99.60;;;;;;5017802;28;20025;-49
2021/12/04 16:16:33;;;;;;;0.68;0.68;;;9.10;99.60;;;;;;5018052;28;20061;-49
2021/12/04 16:19:00;;;;;;;0.60;0.60;;;9.10;99.60;;;;;;5017051;28;20045;-49
2021/12/04 16:21:26;;;;;;;1.85;0.63;;;9.10;99.60;;;;;;5014413;28;20408;-49
2021/12/04 16:23:53;;;;;;;0.57;0.57;;;9.10;99.80;;;;;;5012507;28;20025;-49
2021/12/04 16:26:25;;;;;;;0.22;0.22;;;9.10;99.60;;;;;;5014579;28;20072;-49
2021/12/04 16:29:08;;;;;;;0.32;0.32;;;9.10;99.80;;;;;;5018083;28;20037;-48
2021/12/04 16:40:00;;;;;;;0.55;0.40;;;9.10;99.70;;;;;;4918885;29;20087;-49
2021/12/04 16:42:26;;;;;;;0.32;0.32;;;9.10;99.60;;;;;;4916840;29;20043;-48
2021/12/04 16:44:52;;;;;;;1.30;1.17;;;9.10;99.60;;;;;;4919370;29;20040;-49
2021/12/04 16:47:19;;;;;;;0.35;0.35;;;9.10;99.60;;;;;;4922307;29;20034;-49